Bookmark and Share
Track history (hours):
 

Bachir Chihani

Last reported at 2014-Apr-14 21:30 UTC. Time now 2014-Apr-16 22:29 UTC.
Position N 39°34' E 025°39'.

Length 280 m; draft 11.6 m.

Type: Tanker. MMSI: 605106010.

NotesDate/timePositionNaut miles runAvg speedWind from/ knotsBaromVisibWave heightAir tempDewpointWater temp
2014-Apr-14 21:30N 39°34' E 025°39'10 9.7
2014-Apr-14 20:30N 39°25' E 025°34'109 9.9
2014-Apr-14 09:30N 37°47' E 024°33'1213.1
2014-Apr-14 08:33N 37°36' E 024°27'1313.2
2014-Apr-14 07:33N 37°26' E 024°16'1413.4
2014-Apr-14 06:32N 37°13' E 024°11'46913.3
2014-Apr-12 19:16N 36°28' E 014°27'2514.1
2014-Apr-12 17:31N 36°32' E 013°57'4414.8
2014-Apr-12 14:34N 36°40' E 013°03'1514.2
2014-Apr-12 13:29N 36°42' E 012°45'1413.8
2014-Apr-12 12:29N 36°48' E 012°29'3014.3
2014-Apr-12 10:24N 37°02' E 011°56'1214.4
2014-Apr-12 09:33N 37°08' E 011°43'1414.5
2014-Apr-12 08:34N 37°15' E 011°27'1514.7
2014-Apr-12 07:31N 37°22' E 011°10'1415.0
2014-Apr-12 06:34N 37°26' E 010°52'1515.0
2014-Apr-12 05:33N 37°30' E 010°34'1515.2
2014-Apr-12 04:33N 37°34' E 010°15'1515.1
2014-Apr-12 03:32N 37°34' E 009°56'1515.3
2014-Apr-12 02:33N 37°30' E 009°38'1515.0
2014-Apr-12 01:32N 37°26' E 009°19'1515.1
2014-Apr-12 00:33N 37°23' E 009°01'1515.2
2014-Apr-11 23:33N 37°19' E 008°42'1515.3
2014-Apr-11 22:33N 37°18' E 008°23'1615.6
2014-Apr-11 21:33N 37°18' E 008°03'1815.9
2014-Apr-11 20:24N 37°18' E 007°40'1415.8
2014-Apr-11 19:32N 37°18' E 007°23'3115.5
2014-Apr-11 17:33N 37°18' E 006°45'1413.9
2014-Apr-11 16:33N 37°18' E 006°27'1414.3
2014-Apr-11 15:33N 37°16' E 006°09'1515.0
2014-Apr-11 14:33N 37°14' E 005°51'1514.8
2014-Apr-11 13:34N 37°13' E 005°32'1616.3
2014-Apr-11 12:33N 37°11' E 005°12'1414.0
2014-Apr-11 11:33N 37°10' E 004°54'1615.5
2014-Apr-11 10:31N 37°08' E 004°34'1515.4
2014-Apr-11 09:33N 37°07' E 004°16'1615.6
2014-Apr-11 08:33N 37°05' E 003°56'1815.3
2014-Apr-11 07:21N 37°03' E 003°33'4114.6
2014-Apr-11 04:33N 36°57' E 002°43'1515.4
2014-Apr-11 03:33N 36°55' E 002°24'1514.8
2014-Apr-11 02:33N 36°52' E 002°05'1515.0
2014-Apr-11 01:33N 36°49' E 001°47'1915.8
2014-Apr-11 00:19N 36°45' E 001°23'1215.7
2014-Apr-10 23:33N 36°43' E 001°08'3315.7
2014-Apr-10 21:29N 36°28' E 000°32'2115.5
2014-Apr-10 20:06N 36°16' E 000°10'16 0.4
2014-Apr-09 00:19N 36°25' E 000°26'27 3.1
2014-Apr-08 15:33N 36°40' E 000°55'  

Dump ship's entire track history

sailing weather and tide predictions

Bachir Chihani — 7TJA — position and weather